Terminal Aerodrome Forecast
Issued by NWS Chicago, IL

Home | Current Version | Previous Version | Text Only | Print | Product List | Glossary Off
Versions: 1 2 3 4 5 6 7 8 9 10 11 12 13 14 15 16 17 18 19 20 21 22 23 24 25 26 27 28 29 30 31 32

000
FTUS43 KLOT 291958 AAA
TAFRFD
TAF AMD
KRFD 291958Z 2920/3018 01004KT P6SM BKN013 BKN020
     FM300000 05003KT 4SM BR BKN010 OVC025
     FM300300 03003KT 1/2SM FG OVC002
      TEMPO 3008/3012 1/4SM FG
     FM301500 06004KT 3SM HZ SCT005 BKN009=

USA.gov is the U.S. government's official web portal to all federal, state and local government web resources and services.